Time;durP1;ratioP1;P1;durP2;ratioP2;P2;SDS_P1;SDS_P2;PMS_P1;PMS_P2;Temp;Humidity;BMP_temperature;BMP_pressure;BME280_temperature;BME280_humidity;BME280_pressure;Samples;Min_cycle;Max_cycle;Signal;HPM_P1;HPM_P2
2022/04/29 00:01:17;;;;;;;19.38;6.20;;;;;;;;;;5021945;28;20218;-62
2022/04/29 00:03:42;;;;;;;15.15;5.90;;;;;;;;;;5022145;28;20839;-63
2022/04/29 00:06:08;;;;;;;13.30;6.15;;;;;;;;;;5040242;28;20656;-62
2022/04/29 00:08:33;;;;;;;11.60;6.60;;;;;;;;;;5042024;28;20290;-63
2022/04/29 00:10:58;;;;;;;15.43;6.68;;;;;;;;;;5019565;28;20306;-62
2022/04/29 00:13:24;;;;;;;12.82;6.20;;;;;;;;;;5021339;28;20227;-62
2022/04/29 00:15:49;;;;;;;15.55;6.80;;;;;;;;;;5002538;28;20618;-63
2022/04/29 00:18:15;;;;;;;12.07;6.15;;;;;;;;;;5022417;28;20215;-63
2022/04/29 00:20:40;;;;;;;15.75;6.60;;;;;;;;;;5010302;28;20222;-63
2022/04/29 00:23:06;;;;;;;14.15;7.40;;;;;;;;;;5045244;28;20215;-62
2022/04/29 00:25:31;;;;;;;17.35;7.35;;;;;;;;;;5045954;28;20217;-64
2022/04/29 00:27:56;;;;;;;17.30;7.25;;;;;;;;;;5045090;28;20245;-64
2022/04/29 00:30:22;;;;;;;14.07;7.10;;;;;;;;;;5045390;28;20242;-64
2022/04/29 00:32:47;;;;;;;15.27;7.72;;;;;;;;;;5024424;28;20292;-64
2022/04/29 00:35:13;;;;;;;17.95;7.85;;;;;;;;;;5037077;28;20418;-65
2022/04/29 00:37:43;;;;;;;14.32;8.15;;;;;;;;;;5019221;28;20261;-64
2022/04/29 00:40:11;;;;;;;11.85;7.20;;;;;;;;;;5024758;28;20223;-64
2022/04/29 00:42:36;;;;;;;15.50;8.13;;;;;;;;;;5045137;28;20207;-64
2022/04/29 00:45:01;;;;;;;14.80;7.35;;;;;;;;;;5044964;28;20735;-64
2022/04/29 00:47:26;;;;;;;15.40;7.60;;;;;;;;;;5043805;28;20775;-64
2022/04/29 00:49:52;;;;;;;17.92;7.55;;;;;;;;;;5045246;28;20215;-64
2022/04/29 00:52:18;;;;;;;19.25;8.50;;;;;;;;;;5043772;28;20791;-64
2022/04/29 00:54:45;;;;;;;16.15;7.93;;;;;;;;;;5010099;28;20207;-63
2022/04/29 00:57:12;;;;;;;16.70;8.77;;;;;;;;;;5031065;28;20200;-63
2022/04/29 00:59:40;;;;;;;13.98;8.40;;;;;;;;;;5018446;28;20215;-63
2022/04/29 01:02:07;;;;;;;16.20;9.15;;;;;;;;;;5006037;28;20710;-63
2022/04/29 01:04:35;;;;;;;15.88;8.98;;;;;;;;;;5008691;28;20211;-63
2022/04/29 01:07:00;;;;;;;18.05;8.57;;;;;;;;;;5026817;28;20215;-61
2022/04/29 01:09:25;;;;;;;16.17;8.38;;;;;;;;;;5026316;28;20298;-63
2022/04/29 01:11:51;;;;;;;14.35;9.25;;;;;;;;;;5043668;28;20291;-64
2022/04/29 01:14:16;;;;;;;18.15;8.60;;;;;;;;;;5026484;28;20239;-65
2022/04/29 01:16:42;;;;;;;18.27;9.23;;;;;;;;;;5006824;28;20211;-63
2022/04/29 01:19:08;;;;;;;19.35;9.68;;;;;;;;;;5034734;28;20742;-63
2022/04/29 01:21:33;;;;;;;20.17;9.98;;;;;;;;;;5016436;28;20207;-64
2022/04/29 01:23:58;;;;;;;16.42;9.68;;;;;;;;;;5016467;28;20216;-64
2022/04/29 01:26:23;;;;;;;19.88;9.52;;;;;;;;;;5021046;28;20220;-64
2022/04/29 01:28:50;;;;;;;16.33;10.00;;;;;;;;;;5025165;28;20222;-64
2022/04/29 01:31:15;;;;;;;18.50;9.18;;;;;;;;;;5023365;28;20216;-63
2022/04/29 01:33:41;;;;;;;21.25;10.13;;;;;;;;;;5024845;28;20589;-64
2022/04/29 01:36:07;;;;;;;17.00;9.73;;;;;;;;;;5005565;28;20269;-63
2022/04/29 01:38:32;;;;;;;20.67;10.57;;;;;;;;;;5025180;28;20923;-64
2022/04/29 01:40:57;;;;;;;19.42;9.65;;;;;;;;;;5022624;28;20215;-63
2022/04/29 01:43:22;;;;;;;19.30;10.88;;;;;;;;;;5016935;28;20351;-63
2022/04/29 01:45:48;;;;;;;17.15;10.70;;;;;;;;;;5036040;28;20223;-64
2022/04/29 01:48:13;;;;;;;17.67;10.82;;;;;;;;;;5037521;28;20219;-64
2022/04/29 01:50:38;;;;;;;19.10;10.40;;;;;;;;;;5043361;28;20203;-64
2022/04/29 01:53:03;;;;;;;20.02;11.52;;;;;;;;;;5043030;28;20223;-62
2022/04/29 01:55:29;;;;;;;17.92;10.15;;;;;;;;;;5044696;28;20218;-64
2022/04/29 01:57:56;;;;;;;20.50;10.70;;;;;;;;;;5031724;28;20223;-64
2022/04/29 02:00:21;;;;;;;23.10;11.27;;;;;;;;;;5043489;28;20265;-64
2022/04/29 02:02:47;;;;;;;24.65;10.95;;;;;;;;;;5025682;28;20240;-64
2022/04/29 02:05:12;;;;;;;15.65;10.88;;;;;;;;;;5015307;28;20211;-64
2022/04/29 02:07:37;;;;;;;16.80;11.13;;;;;;;;;;5015532;28;20211;-63
2022/04/29 02:10:03;;;;;;;21.20;11.77;;;;;;;;;;5014358;28;20544;-63
2022/04/29 02:12:28;;;;;;;20.15;11.00;;;;;;;;;;5022556;28;20583;-63
2022/04/29 02:14:53;;;;;;;21.00;11.15;;;;;;;;;;5024585;28;20690;-63
2022/04/29 02:17:19;;;;;;;20.83;10.80;;;;;;;;;;5023617;28;20262;-64
2022/04/29 02:19:44;;;;;;;17.98;10.93;;;;;;;;;;5022759;28;20667;-63
2022/04/29 02:22:09;;;;;;;24.58;11.80;;;;;;;;;;5023419;28;20219;-63
2022/04/29 02:24:34;;;;;;;18.38;11.10;;;;;;;;;;5023490;28;20688;-63
2022/04/29 02:27:00;;;;;;;21.35;11.25;;;;;;;;;;5018668;28;20611;-63
2022/04/29 02:29:27;;;;;;;19.20;11.33;;;;;;;;;;5014968;28;20311;-63
2022/04/29 02:31:53;;;;;;;18.00;10.88;;;;;;;;;;5034686;28;20703;-63
2022/04/29 02:34:18;;;;;;;18.58;11.13;;;;;;;;;;5038505;28;20238;-63
2022/04/29 02:36:43;;;;;;;19.63;11.48;;;;;;;;;;5042603;28;20211;-64
2022/04/29 02:39:09;;;;;;;19.27;10.60;;;;;;;;;;5019006;28;20206;-63
2022/04/29 02:41:35;;;;;;;20.80;11.05;;;;;;;;;;5023178;28;20203;-63
2022/04/29 02:44:00;;;;;;;18.30;10.95;;;;;;;;;;5006112;28;20215;-64
2022/04/29 02:46:25;;;;;;;23.17;11.63;;;;;;;;;;5022218;28;20212;-63
2022/04/29 02:48:50;;;;;;;22.30;11.40;;;;;;;;;;5020972;28;20220;-63
2022/04/29 02:51:16;;;;;;;21.05;11.10;;;;;;;;;;5014904;28;20211;-63
2022/04/29 02:53:41;;;;;;;24.50;11.83;;;;;;;;;;5014317;28;20231;-63
2022/04/29 02:56:07;;;;;;;22.50;11.90;;;;;;;;;;5016749;28;20212;-63
2022/04/29 02:58:32;;;;;;;25.48;11.82;;;;;;;;;;5023436;28;20227;-63
2022/04/29 03:00:57;;;;;;;18.55;11.32;;;;;;;;;;5022311;28;20633;-63
2022/04/29 03:03:23;;;;;;;21.60;12.05;;;;;;;;;;5041819;28;20232;-64
2022/04/29 03:05:48;;;;;;;22.38;11.82;;;;;;;;;;5043021;28;20222;-64
2022/04/29 03:08:13;;;;;;;21.67;11.27;;;;;;;;;;5041347;28;20218;-63
2022/04/29 03:10:38;;;;;;;23.30;12.70;;;;;;;;;;5042399;28;20225;-64
2022/04/29 03:13:04;;;;;;;19.52;11.77;;;;;;;;;;5026712;28;20318;-63
2022/04/29 03:15:29;;;;;;;22.27;11.57;;;;;;;;;;5019418;28;20650;-63
2022/04/29 03:20:38;;;;;;;22.80;11.73;;;;;;;;;;5040925;28;20727;-63
2022/04/29 03:23:04;;;;;;;24.35;12.05;;;;;;;;;;5023405;28;20215;-63
2022/04/29 03:25:29;;;;;;;21.17;12.13;;;;;;;;;;5042358;28;20576;-63
2022/04/29 03:27:55;;;;;;;23.27;11.35;;;;;;;;;;5042031;28;20665;-63
2022/04/29 03:30:20;;;;;;;21.70;11.93;;;;;;;;;;5022927;28;20219;-64
2022/04/29 03:32:55;;;;;;;23.25;12.05;;;;;;;;;;5042111;28;20261;-63
2022/04/29 03:35:20;;;;;;;21.15;11.25;;;;;;;;;;5012431;28;20226;-63
2022/04/29 03:37:46;;;;;;;20.45;10.95;;;;;;;;;;5013527;28;20215;-63
2022/04/29 03:40:13;;;;;;;20.48;11.25;;;;;;;;;;5014362;28;20270;-63
2022/04/29 03:42:39;;;;;;;22.25;11.20;;;;;;;;;;5018810;28;20721;-62
2022/04/29 03:45:04;;;;;;;24.55;11.68;;;;;;;;;;5023209;28;20215;-62
2022/04/29 03:47:29;;;;;;;17.98;11.70;;;;;;;;;;5042146;28;20215;-62
2022/04/29 03:49:55;;;;;;;18.73;10.52;;;;;;;;;;5041236;28;20222;-63
2022/04/29 03:52:20;;;;;;;19.02;11.05;;;;;;;;;;5041027;28;20234;-62
2022/04/29 03:54:45;;;;;;;20.80;10.80;;;;;;;;;;5041799;28;21182;-62
2022/04/29 03:57:11;;;;;;;22.48;11.70;;;;;;;;;;5032307;28;20204;-63
2022/04/29 03:59:36;;;;;;;23.50;11.77;;;;;;;;;;5014335;28;20215;-62
2022/04/29 04:02:01;;;;;;;23.98;11.68;;;;;;;;;;5014136;28;20801;-62
2022/04/29 04:04:26;;;;;;;20.88;12.05;;;;;;;;;;5015664;28;20215;-62
2022/04/29 04:06:52;;;;;;;20.25;11.73;;;;;;;;;;5023359;28;20600;-63
2022/04/29 04:09:18;;;;;;;22.38;12.15;;;;;;;;;;5041251;28;20210;-62
2022/04/29 04:11:43;;;;;;;20.15;11.05;;;;;;;;;;5040759;28;20214;-61
2022/04/29 04:14:08;;;;;;;22.10;11.65;;;;;;;;;;5024308;28;20239;-62
2022/04/29 04:16:35;;;;;;;24.87;11.43;;;;;;;;;;5022244;28;20212;-62
2022/04/29 04:19:00;;;;;;;23.38;11.48;;;;;;;;;;5021357;28;20246;-61
2022/04/29 04:21:26;;;;;;;20.97;11.33;;;;;;;;;;5014373;28;20286;-62
2022/04/29 04:23:53;;;;;;;21.23;11.80;;;;;;;;;;5015896;28;20223;-64
2022/04/29 04:26:18;;;;;;;23.00;11.32;;;;;;;;;;5023194;28;20416;-60
2022/04/29 04:28:43;;;;;;;24.10;11.07;;;;;;;;;;5020703;28;20690;-61
2022/04/29 04:31:09;;;;;;;23.63;11.38;;;;;;;;;;5021503;28;20320;-61
2022/04/29 04:33:34;;;;;;;25.42;12.27;;;;;;;;;;5021424;28;20235;-63
2022/04/29 04:36:00;;;;;;;23.15;12.02;;;;;;;;;;5021953;28;20216;-63
2022/04/29 04:38:26;;;;;;;25.77;12.10;;;;;;;;;;5021089;28;20262;-63
2022/04/29 04:40:52;;;;;;;25.55;12.70;;;;;;;;;;5018680;28;20228;-62
2022/04/29 04:43:17;;;;;;;22.48;12.23;;;;;;;;;;5035834;28;20226;-62
2022/04/29 04:45:42;;;;;;;25.08;11.85;;;;;;;;;;5034106;28;20231;-62
2022/04/29 04:48:07;;;;;;;22.17;11.10;;;;;;;;;;5032243;28;20219;-62
2022/04/29 04:50:33;;;;;;;21.83;12.20;;;;;;;;;;5037887;28;20209;-62
2022/04/29 04:52:58;;;;;;;23.73;12.18;;;;;;;;;;5040775;28;20227;-62
2022/04/29 04:55:23;;;;;;;20.15;11.60;;;;;;;;;;5021785;28;20575;-61
2022/04/29 04:57:49;;;;;;;22.85;11.95;;;;;;;;;;5021975;28;20212;-61
2022/04/29 05:00:14;;;;;;;28.05;11.55;;;;;;;;;;5021742;28;20629;-61
2022/04/29 05:02:40;;;;;;;23.75;12.00;;;;;;;;;;5010461;28;20207;-62
2022/04/29 05:05:06;;;;;;;19.63;11.32;;;;;;;;;;5022701;28;20774;-62
2022/04/29 05:07:31;;;;;;;21.02;11.95;;;;;;;;;;5017543;28;20207;-62
2022/04/29 05:09:56;;;;;;;24.10;12.67;;;;;;;;;;5017227;28;20242;-62
2022/04/29 05:12:21;;;;;;;23.77;12.90;;;;;;;;;;5001076;28;20210;-64
2022/04/29 05:14:47;;;;;;;21.83;11.75;;;;;;;;;;5007072;28;20689;-65
2022/04/29 05:17:12;;;;;;;22.63;13.50;;;;;;;;;;5043363;28;20521;-62
2022/04/29 05:19:38;;;;;;;22.52;11.75;;;;;;;;;;5032983;28;20211;-61
2022/04/29 05:22:03;;;;;;;24.35;12.57;;;;;;;;;;5006447;28;20208;-60
2022/04/29 05:24:28;;;;;;;20.53;11.50;;;;;;;;;;5008325;28;20238;-60
2022/04/29 05:26:54;;;;;;;20.20;11.20;;;;;;;;;;5007000;28;20219;-61
2022/04/29 05:29:19;;;;;;;24.67;11.80;;;;;;;;;;5016586;28;20219;-60
2022/04/29 05:31:44;;;;;;;25.02;11.98;;;;;;;;;;5016660;28;20227;-60
2022/04/29 05:34:09;;;;;;;20.75;11.35;;;;;;;;;;5016725;28;20326;-61
2022/04/29 05:36:35;;;;;;;19.60;11.48;;;;;;;;;;5022223;28;20587;-61
2022/04/29 05:44:28;;;;;;;21.00;11.48;;;;;;;;;;5042680;28;20261;-61
2022/04/29 05:46:53;;;;;;;22.65;12.95;;;;;;;;;;5044074;28;20207;-61
2022/04/29 05:49:19;;;;;;;24.77;11.15;;;;;;;;;;5043052;28;20583;-60
2022/04/29 05:51:44;;;;;;;19.37;11.70;;;;;;;;;;5018985;28;20204;-59
2022/04/29 05:54:09;;;;;;;22.45;11.30;;;;;;;;;;5015978;28;20242;-60
2022/04/29 05:56:34;;;;;;;19.13;10.90;;;;;;;;;;5016772;28;20469;-60
2022/04/29 05:59:00;;;;;;;21.77;13.37;;;;;;;;;;5020992;28;20464;-60
2022/04/29 06:01:25;;;;;;;21.48;12.13;;;;;;;;;;5023959;28;20215;-61
2022/04/29 06:03:50;;;;;;;28.95;12.93;;;;;;;;;;5024077;28;20996;-60
2022/04/29 06:06:16;;;;;;;20.90;10.95;;;;;;;;;;5023216;28;20219;-60
2022/04/29 06:08:41;;;;;;;24.27;11.63;;;;;;;;;;5024442;28;20600;-61
2022/04/29 06:11:06;;;;;;;20.65;11.07;;;;;;;;;;5022686;28;20215;-61
2022/04/29 06:13:32;;;;;;;22.98;11.38;;;;;;;;;;5020918;28;20271;-60
2022/04/29 06:15:59;;;;;;;20.70;11.07;;;;;;;;;;5015654;28;20242;-61
2022/04/29 06:18:24;;;;;;;23.33;12.25;;;;;;;;;;5016182;28;20208;-60
2022/04/29 06:20:49;;;;;;;19.20;10.80;;;;;;;;;;5039308;28;20222;-61
2022/04/29 06:23:14;;;;;;;26.38;11.23;;;;;;;;;;5042534;28;20610;-74
2022/04/29 06:25:40;;;;;;;22.05;13.52;;;;;;;;;;5043363;28;20211;-72
2022/04/29 06:28:05;;;;;;;22.60;11.95;;;;;;;;;;5035736;28;20212;-74
2022/04/29 06:30:30;;;;;;;17.95;10.68;;;;;;;;;;5015185;28;20218;-74
2022/04/29 06:32:55;;;;;;;21.98;11.23;;;;;;;;;;5051857;28;20649;-72
2022/04/29 06:35:21;;;;;;;23.20;10.90;;;;;;;;;;5035137;28;20207;-78
2022/04/29 06:37:47;;;;;;;26.67;11.82;;;;;;;;;;5053195;28;20611;-78
2022/04/29 06:40:12;;;;;;;21.27;11.48;;;;;;;;;;5052506;28;20256;-76
2022/04/29 06:42:45;;;;;;;18.23;10.57;;;;;;;;;;5053194;28;20207;-73
2022/04/29 06:45:10;;;;;;;19.67;10.82;;;;;;;;;;5035096;28;20226;-69
2022/04/29 06:47:35;;;;;;;21.08;11.45;;;;;;;;;;5035005;28;20579;-69
2022/04/29 06:50:01;;;;;;;21.77;10.95;;;;;;;;;;5035082;28;20677;-66
2022/04/29 06:52:26;;;;;;;25.65;11.80;;;;;;;;;;5052057;28;20298;-74
2022/04/29 06:54:51;;;;;;;23.95;11.57;;;;;;;;;;5052987;28;20242;-70
2022/04/29 06:57:16;;;;;;;21.80;11.30;;;;;;;;;;5044566;28;20247;-63
2022/04/29 06:59:42;;;;;;;19.90;9.65;;;;;;;;;;5032383;28;20214;-64
2022/04/29 07:02:07;;;;;;;23.45;10.35;;;;;;;;;;5045847;28;20207;-65
2022/04/29 07:04:32;;;;;;;19.15;10.50;;;;;;;;;;5053119;28;20260;-64
2022/04/29 07:06:58;;;;;;;22.63;10.95;;;;;;;;;;5052048;28;20211;-64
2022/04/29 07:09:23;;;;;;;22.10;10.85;;;;;;;;;;5052717;28;20677;-63
2022/04/29 07:11:49;;;;;;;20.92;10.25;;;;;;;;;;5035268;28;20212;-64
2022/04/29 07:14:14;;;;;;;14.05;9.65;;;;;;;;;;5024435;28;20219;-64
2022/04/29 07:16:40;;;;;;;20.60;10.38;;;;;;;;;;5052655;28;20203;-75
2022/04/29 07:19:05;;;;;;;20.05;9.93;;;;;;;;;;5052517;28;20294;-67
2022/04/29 07:21:31;;;;;;;22.23;10.00;;;;;;;;;;5034029;28;20203;-66
2022/04/29 07:23:56;;;;;;;21.50;11.35;;;;;;;;;;5052474;28;20211;-69
2022/04/29 07:26:22;;;;;;;24.13;10.98;;;;;;;;;;5034669;28;20214;-73
2022/04/29 07:28:47;;;;;;;16.90;10.52;;;;;;;;;;5051968;28;20689;-68
2022/04/29 07:31:12;;;;;;;21.35;10.10;;;;;;;;;;5044802;28;20558;-71
2022/04/29 07:33:38;;;;;;;23.52;10.73;;;;;;;;;;5034708;28;20227;-70
2022/04/29 07:41:44;;;;;;;17.50;9.88;;;;;;;;;;5052175;28;20256;-71
2022/04/29 07:44:09;;;;;;;18.60;9.30;;;;;;;;;;5036248;28;20211;-70
2022/04/29 07:46:36;;;;;;;18.27;9.38;;;;;;;;;;5034551;28;20609;-68
2022/04/29 07:49:02;;;;;;;22.65;9.07;;;;;;;;;;5033706;28;20266;-72
2022/04/29 07:51:27;;;;;;;17.70;9.35;;;;;;;;;;5034424;28;20238;-69
2022/04/29 07:53:52;;;;;;;22.45;8.95;;;;;;;;;;5052038;28;20219;-72
2022/04/29 07:56:18;;;;;;;22.00;9.52;;;;;;;;;;5051139;28;20215;-73
2022/04/29 07:58:43;;;;;;;17.52;8.35;;;;;;;;;;5015909;28;20364;-67
2022/04/29 08:01:09;;;;;;;19.67;9.25;;;;;;;;;;5036344;28;20199;-60
2022/04/29 08:03:36;;;;;;;20.92;8.75;;;;;;;;;;5051594;28;20233;-60
2022/04/29 08:06:02;;;;;;;15.73;8.45;;;;;;;;;;5033941;28;20214;-61
2022/04/29 08:08:27;;;;;;;18.45;8.48;;;;;;;;;;5052241;28;20214;-60
2022/04/29 08:10:52;;;;;;;16.13;8.18;;;;;;;;;;5051394;28;20215;-60
2022/04/29 08:13:18;;;;;;;19.15;9.25;;;;;;;;;;5051676;28;20228;-60
2022/04/29 08:15:43;;;;;;;16.95;9.20;;;;;;;;;;5052128;28;20668;-60
2022/04/29 08:18:09;;;;;;;16.35;8.35;;;;;;;;;;5050714;28;20217;-60
2022/04/29 08:20:34;;;;;;;15.85;8.52;;;;;;;;;;5033384;28;20709;-60
2022/04/29 08:22:59;;;;;;;16.75;9.35;;;;;;;;;;5052057;28;20215;-60
2022/04/29 08:25:25;;;;;;;17.98;8.63;;;;;;;;;;5050865;28;20207;-60
2022/04/29 08:27:51;;;;;;;14.98;8.60;;;;;;;;;;5034607;28;20305;-60
2022/04/29 08:30:16;;;;;;;17.65;8.90;;;;;;;;;;5051625;28;20204;-60
2022/04/29 08:32:43;;;;;;;17.60;8.20;;;;;;;;;;5050948;28;20219;-60
2022/04/29 08:35:09;;;;;;;18.90;8.18;;;;;;;;;;5052809;28;20225;-59
2022/04/29 08:37:38;;;;;;;21.38;9.90;;;;;;;;;;5055930;28;20226;-60
2022/04/29 08:40:04;;;;;;;19.00;9.27;;;;;;;;;;5036693;28;20211;-59
2022/04/29 08:42:29;;;;;;;13.15;7.72;;;;;;;;;;5051438;28;20214;-59
2022/04/29 08:44:55;;;;;;;17.33;9.45;;;;;;;;;;5037998;28;20211;-60
2022/04/29 08:47:20;;;;;;;17.38;8.25;;;;;;;;;;5036896;28;20219;-60
2022/04/29 08:49:46;;;;;;;13.50;8.23;;;;;;;;;;5037979;28;20332;-59
2022/04/29 08:52:13;;;;;;;21.98;8.30;;;;;;;;;;5053789;28;20226;-60
2022/04/29 09:00:08;;;;;;;16.25;7.35;;;;;;;;;;5019493;28;20693;-60
2022/04/29 09:02:38;;;;;;;15.32;7.30;;;;;;;;;;5034114;28;20210;-59
2022/04/29 09:05:06;;;;;;;15.27;7.60;;;;;;;;;;5037041;28;20211;-60
2022/04/29 09:07:50;;;;;;;13.90;7.28;;;;;;;;;;5054668;28;20269;-60
2022/04/29 09:10:15;;;;;;;13.57;7.85;;;;;;;;;;5054886;28;20242;-60
2022/04/29 09:12:41;;;;;;;16.88;7.90;;;;;;;;;;5055231;28;20255;-59
2022/04/29 09:15:12;;;;;;;16.85;7.65;;;;;;;;;;5054277;28;20261;-59
2022/04/29 09:17:39;;;;;;;13.13;7.35;;;;;;;;;;5054893;28;20203;-60
2022/04/29 09:20:16;;;;;;;13.80;7.97;;;;;;;;;;5054296;28;20286;-60
2022/04/29 09:22:43;;;;;;;14.52;8.25;;;;;;;;;;5055013;28;20214;-60
2022/04/29 09:25:09;;;;;;;15.50;7.50;;;;;;;;;;5054493;28;20627;-59
2022/04/29 09:27:53;;;;;;;14.50;8.60;;;;;;;;;;5054286;28;20733;-59
2022/04/29 09:30:30;;;;;;;14.35;7.80;;;;;;;;;;5054456;28;20203;-60
2022/04/29 09:32:55;;;;;;;15.75;8.43;;;;;;;;;;5054393;28;20218;-60
2022/04/29 09:35:36;;;;;;;13.25;7.82;;;;;;;;;;5053335;28;20213;-59
2022/04/29 09:41:07;;;;;;;16.48;9.75;;;;;;;;;;5049640;28;20223;-60
2022/04/29 09:43:33;;;;;;;18.67;9.15;;;;;;;;;;5053852;28;20207;-60
2022/04/29 09:46:08;;;;;;;19.05;9.80;;;;;;;;;;5054486;28;20215;-60
2022/04/29 09:48:49;;;;;;;15.40;9.10;;;;;;;;;;5040369;28;20216;-60
2022/04/29 09:51:14;;;;;;;15.20;9.77;;;;;;;;;;5033794;28;20741;-60
2022/04/29 09:53:40;;;;;;;15.88;8.82;;;;;;;;;;5034126;28;20306;-59
2022/04/29 09:56:06;;;;;;;18.00;9.18;;;;;;;;;;5033347;28;20219;-60
2022/04/29 09:58:31;;;;;;;14.30;8.55;;;;;;;;;;5025620;28;20208;-60
2022/04/29 10:00:57;;;;;;;16.10;9.55;;;;;;;;;;5017906;28;20562;-60
2022/04/29 10:03:22;;;;;;;14.30;9.00;;;;;;;;;;5052627;28;20237;-59
2022/04/29 10:05:48;;;;;;;18.95;9.38;;;;;;;;;;5053826;28;20207;-59
2022/04/29 10:08:14;;;;;;;17.58;8.98;;;;;;;;;;5036069;28;20685;-59
2022/04/29 10:10:39;;;;;;;16.40;9.07;;;;;;;;;;5035637;28;20298;-59
2022/04/29 10:13:04;;;;;;;17.83;8.77;;;;;;;;;;5053630;28;20686;-59
2022/04/29 10:15:31;;;;;;;17.33;9.20;;;;;;;;;;5054243;28;20217;-60
2022/04/29 10:23:24;;;;;;;15.63;8.82;;;;;;;;;;5053610;28;20231;-60
2022/04/29 10:25:49;;;;;;;18.02;9.52;;;;;;;;;;5053185;28;20211;-60
2022/04/29 10:28:15;;;;;;;13.98;9.05;;;;;;;;;;5053559;28;20286;-60
2022/04/29 10:30:41;;;;;;;12.98;7.85;;;;;;;;;;5052265;28;20211;-60
2022/04/29 10:33:07;;;;;;;14.73;8.13;;;;;;;;;;5024957;28;20239;-60
2022/04/29 10:35:39;;;;;;;14.65;7.80;;;;;;;;;;5013588;28;20212;-59
2022/04/29 10:38:23;;;;;;;12.15;7.55;;;;;;;;;;5028583;28;20223;-59
2022/04/29 10:41:08;;;;;;;14.13;7.68;;;;;;;;;;5032360;28;20623;-59
2022/04/29 10:43:38;;;;;;;11.82;7.25;;;;;;;;;;5033256;28;20204;-59
2022/04/29 10:46:04;;;;;;;16.08;8.30;;;;;;;;;;5052035;28;20303;-60
2022/04/29 10:48:30;;;;;;;10.93;7.45;;;;;;;;;;5053062;28;20294;-60
2022/04/29 10:50:56;;;;;;;15.15;7.40;;;;;;;;;;5053033;28;20223;-60
2022/04/29 10:53:22;;;;;;;14.13;6.70;;;;;;;;;;5051713;28;20246;-59
2022/04/29 10:55:48;;;;;;;13.98;7.45;;;;;;;;;;5049969;28;20675;-59
2022/04/29 10:58:20;;;;;;;15.88;7.03;;;;;;;;;;5037214;28;20226;-59
2022/04/29 11:00:56;;;;;;;14.20;7.28;;;;;;;;;;5033850;28;20750;-59
2022/04/29 11:03:36;;;;;;;13.52;7.28;;;;;;;;;;5052173;28;20267;-60
2022/04/29 11:06:09;;;;;;;14.27;7.25;;;;;;;;;;5051790;28;20242;-60
2022/04/29 11:08:34;;;;;;;14.30;7.70;;;;;;;;;;5053067;28;20207;-60
2022/04/29 11:10:59;;;;;;;15.20;7.22;;;;;;;;;;5053143;28;20215;-60
2022/04/29 11:13:26;;;;;;;16.15;7.68;;;;;;;;;;5051679;28;20309;-60
2022/04/29 11:15:52;;;;;;;15.57;7.93;;;;;;;;;;5052998;28;20222;-60
2022/04/29 11:18:19;;;;;;;12.57;7.32;;;;;;;;;;5052050;28;20578;-59
2022/04/29 11:20:45;;;;;;;13.43;6.63;;;;;;;;;;5051613;28;20203;-60
2022/04/29 11:25:56;;;;;;;17.98;7.93;;;;;;;;;;5053022;28;20313;-60
2022/04/29 11:28:21;;;;;;;17.95;7.30;;;;;;;;;;5051598;28;20689;-60
2022/04/29 11:30:47;;;;;;;16.65;6.93;;;;;;;;;;5052676;28;20223;-60
2022/04/29 11:33:12;;;;;;;15.13;6.82;;;;;;;;;;5034026;28;20227;-60
2022/04/29 11:35:38;;;;;;;15.80;7.45;;;;;;;;;;5051247;28;20576;-60
2022/04/29 11:38:03;;;;;;;17.17;7.10;;;;;;;;;;5034383;28;20273;-60
2022/04/29 11:40:29;;;;;;;14.20;7.53;;;;;;;;;;5051977;28;20206;-60
2022/04/29 11:42:54;;;;;;;16.05;7.57;;;;;;;;;;5048000;28;20228;-60
2022/04/29 11:45:21;;;;;;;14.15;7.75;;;;;;;;;;5051812;28;20586;-59
2022/04/29 11:47:46;;;;;;;13.77;7.90;;;;;;;;;;5052036;28;20302;-60
2022/04/29 11:50:12;;;;;;;12.55;7.78;;;;;;;;;;5050927;28;20305;-60
2022/04/29 11:52:39;;;;;;;16.42;7.05;;;;;;;;;;5033594;28;20232;-59
2022/04/29 11:55:05;;;;;;;14.85;7.38;;;;;;;;;;5031045;28;20215;-60
2022/04/29 11:57:31;;;;;;;13.85;6.75;;;;;;;;;;5032294;28;20212;-60
2022/04/29 11:59:56;;;;;;;12.10;6.85;;;;;;;;;;5032409;28;20239;-60
2022/04/29 12:02:22;;;;;;;13.15;7.40;;;;;;;;;;5015896;28;20262;-60
2022/04/29 12:04:53;;;;;;;12.20;7.47;;;;;;;;;;5032301;28;20207;-60
2022/04/29 12:07:19;;;;;;;14.55;7.40;;;;;;;;;;5031508;28;20212;-60
2022/04/29 12:09:44;;;;;;;14.98;7.28;;;;;;;;;;5033559;28;20206;-60
2022/04/29 12:12:22;;;;;;;12.88;6.45;;;;;;;;;;5035411;28;20252;-58
2022/04/29 12:14:47;;;;;;;12.98;6.90;;;;;;;;;;5035877;28;20239;-60
2022/04/29 12:17:15;;;;;;;13.48;6.90;;;;;;;;;;5046421;28;20247;-60
2022/04/29 12:19:41;;;;;;;11.40;6.88;;;;;;;;;;5036289;28;20262;-60
2022/04/29 12:22:06;;;;;;;13.18;6.40;;;;;;;;;;5054951;28;20537;-60
2022/04/29 12:24:38;;;;;;;12.52;6.80;;;;;;;;;;5055469;28;20252;-60
2022/04/29 12:27:04;;;;;;;15.20;7.07;;;;;;;;;;5037188;28;20252;-60
2022/04/29 12:29:30;;;;;;;13.40;7.18;;;;;;;;;;5055601;28;20226;-60
2022/04/29 12:34:48;;;;;;;9.88;6.00;;;;;;;;;;5061386;28;20610;-60
2022/04/29 12:37:13;;;;;;;12.52;7.03;;;;;;;;;;5074287;28;20689;-60
2022/04/29 12:39:39;;;;;;;13.90;6.13;;;;;;;;;;5056709;28;20226;-60
2022/04/29 12:42:08;;;;;;;10.07;6.53;;;;;;;;;;5016649;28;20219;-60
2022/04/29 12:47:30;;;;;;;13.73;6.18;;;;;;;;;;5023031;28;20255;-60
2022/04/29 12:50:14;;;;;;;11.95;6.72;;;;;;;;;;5010700;28;20219;-60
2022/04/29 12:52:54;;;;;;;11.25;6.30;;;;;;;;;;5014096;28;20626;-60
2022/04/29 12:55:20;;;;;;;8.38;5.70;;;;;;;;;;4998363;28;20216;-60
2022/04/29 12:57:45;;;;;;;11.30;6.28;;;;;;;;;;5048190;28;20658;-60
2022/04/29 13:00:11;;;;;;;12.63;6.43;;;;;;;;;;5035930;28;20219;-60
2022/04/29 13:02:36;;;;;;;11.48;6.68;;;;;;;;;;5035325;28;20203;-60
2022/04/29 13:05:02;;;;;;;14.25;7.22;;;;;;;;;;5034864;28;20667;-61
2022/04/29 13:07:29;;;;;;;13.52;6.60;;;;;;;;;;5016891;28;20223;-60
2022/04/29 13:09:55;;;;;;;13.93;7.00;;;;;;;;;;5035180;28;20219;-61
2022/04/29 13:12:20;;;;;;;10.15;5.88;;;;;;;;;;5034027;28;20220;-61
2022/04/29 13:14:46;;;;;;;11.35;6.25;;;;;;;;;;5035044;28;20246;-61
2022/04/29 13:17:11;;;;;;;11.88;6.13;;;;;;;;;;5016522;28;20220;-61
2022/04/29 13:19:38;;;;;;;14.63;6.35;;;;;;;;;;5010197;28;20207;-61
2022/04/29 13:22:03;;;;;;;10.52;6.10;;;;;;;;;;5033728;28;20245;-60
2022/04/29 13:24:28;;;;;;;13.63;6.63;;;;;;;;;;5034232;28;20200;-60
2022/04/29 13:26:54;;;;;;;13.50;6.63;;;;;;;;;;5033873;28;20218;-61
2022/04/29 13:29:19;;;;;;;9.68;5.93;;;;;;;;;;5033456;28;20218;-61
2022/04/29 13:31:45;;;;;;;10.52;5.85;;;;;;;;;;5047302;28;20249;-61
2022/04/29 13:34:10;;;;;;;12.32;6.40;;;;;;;;;;5053540;28;20227;-61
2022/04/29 13:36:35;;;;;;;11.93;6.35;;;;;;;;;;5037017;28;20234;-62
2022/04/29 13:39:01;;;;;;;9.73;6.40;;;;;;;;;;5053944;28;20237;-62
2022/04/29 13:41:26;;;;;;;11.52;7.07;;;;;;;;;;5049490;28;20730;-62
2022/04/29 13:43:52;;;;;;;62.03;44.28;;;;;;;;;;5054824;28;20211;-62
2022/04/29 13:46:18;;;;;;;11.48;6.63;;;;;;;;;;5053650;28;20210;-61
2022/04/29 13:48:43;;;;;;;14.82;6.53;;;;;;;;;;5053754;28;20301;-62
2022/04/29 13:51:08;;;;;;;14.00;8.32;;;;;;;;;;5053302;28;20265;-61
2022/04/29 13:53:33;;;;;;;12.30;6.78;;;;;;;;;;5038257;28;20701;-62
2022/04/29 13:55:59;;;;;;;16.45;13.13;;;;;;;;;;5033052;28;20295;-61
2022/04/29 13:58:24;;;;;;;11.60;6.35;;;;;;;;;;5033929;28;20532;-61
2022/04/29 14:00:50;;;;;;;10.05;5.90;;;;;;;;;;5031770;28;20265;-62
2022/04/29 14:03:17;;;;;;;10.02;6.55;;;;;;;;;;5013574;28;20224;-61
2022/04/29 14:05:43;;;;;;;11.98;7.07;;;;;;;;;;5014359;28;20671;-61
2022/04/29 14:08:08;;;;;;;12.60;5.95;;;;;;;;;;5013945;28;20219;-61
2022/04/29 14:10:33;;;;;;;9.98;5.45;;;;;;;;;;5013386;28;20551;-61
2022/04/29 14:12:59;;;;;;;10.88;9.52;;;;;;;;;;5014195;28;20587;-61
2022/04/29 14:15:24;;;;;;;11.20;5.72;;;;;;;;;;4996555;28;20681;-61
2022/04/29 14:17:50;;;;;;;9.80;6.22;;;;;;;;;;5013664;28;20641;-61
2022/04/29 14:20:15;;;;;;;13.88;6.95;;;;;;;;;;5013539;28;20220;-61
2022/04/29 14:22:41;;;;;;;14.77;7.10;;;;;;;;;;5013472;28;20560;-61
2022/04/29 14:25:07;;;;;;;9.68;6.78;;;;;;;;;;5013447;28;20224;-61
2022/04/29 14:27:33;;;;;;;13.93;7.60;;;;;;;;;;5014078;28;20283;-61
2022/04/29 14:29:58;;;;;;;11.77;6.50;;;;;;;;;;5012838;28;20304;-61
2022/04/29 14:32:25;;;;;;;12.15;6.70;;;;;;;;;;5012614;28;20212;-61
2022/04/29 14:34:50;;;;;;;11.32;6.30;;;;;;;;;;5013725;28;20224;-61
2022/04/29 14:37:15;;;;;;;10.35;6.20;;;;;;;;;;5012810;28;20212;-61
2022/04/29 14:39:41;;;;;;;10.63;6.60;;;;;;;;;;5013831;28;20291;-61
2022/04/29 14:42:07;;;;;;;11.68;6.38;;;;;;;;;;5017425;28;20631;-61
2022/04/29 14:44:32;;;;;;;12.25;6.38;;;;;;;;;;4995627;28;20208;-61
2022/04/29 14:46:59;;;;;;;10.50;6.15;;;;;;;;;;5014275;28;20270;-61
2022/04/29 14:49:26;;;;;;;10.70;6.43;;;;;;;;;;4995674;28;20208;-60
2022/04/29 14:51:52;;;;;;;10.57;5.75;;;;;;;;;;5013144;28;20296;-61
2022/04/29 14:54:17;;;;;;;10.90;5.75;;;;;;;;;;5032606;28;20239;-61
2022/04/29 14:56:43;;;;;;;12.32;6.30;;;;;;;;;;5030948;28;20373;-61